sensor_id;sensor_type;location;lat;lon;timestamp;temperature;humidity
12039;DHT22;6080;48.818;9.526;2023-02-28T04:00:43;-1.00;99.90
12039;DHT22;6080;48.818;9.526;2023-02-28T04:03:11;-1.00;99.90
12039;DHT22;6080;48.818;9.526;2023-02-28T04:05:52;-1.00;99.90
12039;DHT22;6080;48.818;9.526;2023-02-28T04:08:18;-0.90;99.90
12039;DHT22;6080;48.818;9.526;2023-02-28T04:10:49;-0.90;99.90
12039;DHT22;6080;48.818;9.526;2023-02-28T04:13:16;-0.80;99.90
12039;DHT22;6080;48.818;9.526;2023-02-28T04:15:42;-0.80;99.90
12039;DHT22;6080;48.818;9.526;2023-02-28T04:18:13;-0.80;99.90
12039;DHT22;6080;48.818;9.526;2023-02-28T04:20:39;-0.80;99.90
12039;DHT22;6080;48.818;9.526;2023-02-28T04:23:05;-0.70;99.90
12039;DHT22;6080;48.818;9.526;2023-02-28T04:25:34;-0.70;99.90
12039;DHT22;6080;48.818;9.526;2023-02-28T04:28:00;-0.70;99.90
12039;DHT22;6080;48.818;9.526;2023-02-28T04:30:26;-0.70;99.90
12039;DHT22;6080;48.818;9.526;2023-02-28T04:32:55;-0.60;99.90
12039;DHT22;6080;48.818;9.526;2023-02-28T04:35:21;-0.60;99.90
12039;DHT22;6080;48.818;9.526;2023-02-28T04:37:46;-0.60;99.90
12039;DHT22;6080;48.818;9.526;2023-02-28T04:40:12;-0.60;99.90
12039;DHT22;6080;48.818;9.526;2023-02-28T04:42:38;-0.60;99.90
12039;DHT22;6080;48.818;9.526;2023-02-28T04:45:04;-0.60;99.90
12039;DHT22;6080;48.818;9.526;2023-02-28T04:47:30;-0.50;99.90
12039;DHT22;6080;48.818;9.526;2023-02-28T04:49:56;-0.50;99.90
12039;DHT22;6080;48.818;9.526;2023-02-28T04:52:22;-0.60;99.90
12039;DHT22;6080;48.818;9.526;2023-02-28T04:54:48;-0.50;99.90
12039;DHT22;6080;48.818;9.526;2023-02-28T04:57:14;-0.50;99.90
12039;DHT22;6080;48.818;9.526;2023-02-28T04:59:40;-0.50;99.90
12039;DHT22;6080;48.818;9.526;2023-02-28T05:02:06;-0.50;99.90
12039;DHT22;6080;48.818;9.526;2023-02-28T05:04:33;-0.50;99.90
12039;DHT22;6080;48.818;9.526;2023-02-28T05:07:00;-0.40;99.90
12039;DHT22;6080;48.818;9.526;2023-02-28T05:09:27;-0.40;99.90
12039;DHT22;6080;48.818;9.526;2023-02-28T05:11:54;-0.40;99.90
12039;DHT22;6080;48.818;9.526;2023-02-28T05:14:19;-0.40;99.90
12039;DHT22;6080;48.818;9.526;2023-02-28T05:16:46;-0.40;99.90
12039;DHT22;6080;48.818;9.526;2023-02-28T05:19:11;-0.40;99.90
12039;DHT22;6080;48.818;9.526;2023-02-28T05:21:38;-0.30;99.90
12039;DHT22;6080;48.818;9.526;2023-02-28T05:24:06;-0.30;99.90
12039;DHT22;6080;48.818;9.526;2023-02-28T05:26:38;-0.30;99.90
12039;DHT22;6080;48.818;9.526;2023-02-28T05:29:04;-0.30;99.90
12039;DHT22;6080;48.818;9.526;2023-02-28T05:31:30;-0.30;99.90
12039;DHT22;6080;48.818;9.526;2023-02-28T05:33:57;-0.30;99.90
12039;DHT22;6080;48.818;9.526;2023-02-28T05:36:23;-0.30;99.90
12039;DHT22;6080;48.818;9.526;2023-02-28T05:38:50;-0.30;99.90
12039;DHT22;6080;48.818;9.526;2023-02-28T05:41:17;-0.30;99.90
12039;DHT22;6080;48.818;9.526;2023-02-28T05:43:43;-0.30;99.90
12039;DHT22;6080;48.818;9.526;2023-02-28T05:46:10;-0.30;99.90
12039;DHT22;6080;48.818;9.526;2023-02-28T05:48:38;-0.30;99.90
12039;DHT22;6080;48.818;9.526;2023-02-28T05:51:05;-0.30;99.90
12039;DHT22;6080;48.818;9.526;2023-02-28T05:53:31;-0.30;99.90
12039;DHT22;6080;48.818;9.526;2023-02-28T05:55:57;-0.30;99.90
12039;DHT22;6080;48.818;9.526;2023-02-28T05:58:23;-0.20;99.90
12039;DHT22;6080;48.818;9.526;2023-02-28T06:00:50;-0.20;99.90
12039;DHT22;6080;48.818;9.526;2023-02-28T06:03:16;-0.30;99.90
12039;DHT22;6080;48.818;9.526;2023-02-28T06:05:42;-0.30;99.90
12039;DHT22;6080;48.818;9.526;2023-02-28T06:08:08;-0.30;99.90
12039;DHT22;6080;48.818;9.526;2023-02-28T06:10:36;-0.20;99.90
12039;DHT22;6080;48.818;9.526;2023-02-28T06:13:03;-0.20;99.90
12039;DHT22;6080;48.818;9.526;2023-02-28T06:15:30;-0.20;99.90
12039;DHT22;6080;48.818;9.526;2023-02-28T06:17:56;-0.20;99.90
12039;DHT22;6080;48.818;9.526;2023-02-28T06:20:23;-0.20;99.90
12039;DHT22;6080;48.818;9.526;2023-02-28T06:22:49;-0.20;99.90
12039;DHT22;6080;48.818;9.526;2023-02-28T06:25:16;-0.20;99.90
12039;DHT22;6080;48.818;9.526;2023-02-28T06:27:43;-0.20;99.90
12039;DHT22;6080;48.818;9.526;2023-02-28T06:30:10;-0.20;99.90
12039;DHT22;6080;48.818;9.526;2023-02-28T06:32:36;-0.20;99.90
12039;DHT22;6080;48.818;9.526;2023-02-28T06:35:02;-0.20;99.90
12039;DHT22;6080;48.818;9.526;2023-02-28T06:37:30;-0.20;99.90
12039;DHT22;6080;48.818;9.526;2023-02-28T06:39:55;-0.20;99.90
12039;DHT22;6080;48.818;9.526;2023-02-28T06:42:22;-0.20;99.90
12039;DHT22;6080;48.818;9.526;2023-02-28T06:44:57;-0.20;99.90
12039;DHT22;6080;48.818;9.526;2023-02-28T06:47:24;-0.10;99.90
12039;DHT22;6080;48.818;9.526;2023-02-28T06:49:50;0.00;99.90
12039;DHT22;6080;48.818;9.526;2023-02-28T06:52:16;-0.10;99.90
12039;DHT22;6080;48.818;9.526;2023-02-28T06:54:41;-0.10;99.90
12039;DHT22;6080;48.818;9.526;2023-02-28T06:57:07;-0.10;99.90
12039;DHT22;6080;48.818;9.526;2023-02-28T06:59:34;-0.10;99.90
12039;DHT22;6080;48.818;9.526;2023-02-28T07:02:01;-0.10;99.90
12039;DHT22;6080;48.818;9.526;2023-02-28T07:04:28;0.00;99.90
12039;DHT22;6080;48.818;9.526;2023-02-28T07:06:55;-0.10;99.90
12039;DHT22;6080;48.818;9.526;2023-02-28T07:09:22;-0.10;99.90
12039;DHT22;6080;48.818;9.526;2023-02-28T07:11:48;0.00;99.90
12039;DHT22;6080;48.818;9.526;2023-02-28T07:14:14;0.00;99.90
12039;DHT22;6080;48.818;9.526;2023-02-28T07:16:40;0.00;99.90
12039;DHT22;6080;48.818;9.526;2023-02-28T07:19:09;0.00;99.90
12039;DHT22;6080;48.818;9.526;2023-02-28T07:21:34;0.00;99.90
12039;DHT22;6080;48.818;9.526;2023-02-28T07:24:00;0.10;99.90
12039;DHT22;6080;48.818;9.526;2023-02-28T07:26:26;0.10;99.90
12039;DHT22;6080;48.818;9.526;2023-02-28T07:28:52;0.10;99.90
12039;DHT22;6080;48.818;9.526;2023-02-28T07:31:18;0.10;99.90
12039;DHT22;6080;48.818;9.526;2023-02-28T07:33:44;0.10;99.90
12039;DHT22;6080;48.818;9.526;2023-02-28T07:36:13;0.10;99.90
12039;DHT22;6080;48.818;9.526;2023-02-28T07:38:42;0.10;99.90
12039;DHT22;6080;48.818;9.526;2023-02-28T07:41:09;0.10;99.90
12039;DHT22;6080;48.818;9.526;2023-02-28T07:43:35;0.20;99.90
12039;DHT22;6080;48.818;9.526;2023-02-28T07:46:05;0.20;99.90
12039;DHT22;6080;48.818;9.526;2023-02-28T07:48:31;0.30;99.90
12039;DHT22;6080;48.818;9.526;2023-02-28T07:50:58;0.50;99.90
12039;DHT22;6080;48.818;9.526;2023-02-28T07:53:24;0.50;99.90
12039;DHT22;6080;48.818;9.526;2023-02-28T07:55:50;0.50;99.90
12039;DHT22;6080;48.818;9.526;2023-02-28T07:58:16;0.50;99.90
12039;DHT22;6080;48.818;9.526;2023-02-28T08:00:42;0.60;99.90
12039;DHT22;6080;48.818;9.526;2023-02-28T08:03:12;0.60;99.90
12039;DHT22;6080;48.818;9.526;2023-02-28T08:05:41;0.50;99.90
12039;DHT22;6080;48.818;9.526;2023-02-28T08:08:07;0.60;99.90
12039;DHT22;6080;48.818;9.526;2023-02-28T08:10:34;0.70;99.90
12039;DHT22;6080;48.818;9.526;2023-02-28T08:13:00;0.70;99.90
12039;DHT22;6080;48.818;9.526;2023-02-28T08:15:26;0.60;99.90
12039;DHT22;6080;48.818;9.526;2023-02-28T08:17:52;0.50;99.90
12039;DHT22;6080;48.818;9.526;2023-02-28T08:20:17;0.50;99.90
12039;DHT22;6080;48.818;9.526;2023-02-28T08:22:44;0.60;99.90
12039;DHT22;6080;48.818;9.526;2023-02-28T08:25:10;0.60;99.90
12039;DHT22;6080;48.818;9.526;2023-02-28T08:27:36;0.80;99.90
12039;DHT22;6080;48.818;9.526;2023-02-28T08:30:03;0.90;99.90
12039;DHT22;6080;48.818;9.526;2023-02-28T08:32:28;0.90;99.90
12039;DHT22;6080;48.818;9.526;2023-02-28T08:34:54;0.90;99.90
12039;DHT22;6080;48.818;9.526;2023-02-28T08:37:20;0.70;99.90
12039;DHT22;6080;48.818;9.526;2023-02-28T08:39:46;0.80;99.90
12039;DHT22;6080;48.818;9.526;2023-02-28T08:42:12;0.90;99.90
12039;DHT22;6080;48.818;9.526;2023-02-28T08:44:37;1.00;99.90
12039;DHT22;6080;48.818;9.526;2023-02-28T08:47:03;0.90;99.90
12039;DHT22;6080;48.818;9.526;2023-02-28T08:49:29;1.00;99.90
12039;DHT22;6080;48.818;9.526;2023-02-28T08:51:55;1.10;99.90
12039;DHT22;6080;48.818;9.526;2023-02-28T08:54:23;1.20;99.90
12039;DHT22;6080;48.818;9.526;2023-02-28T08:56:48;1.30;99.90
12039;DHT22;6080;48.818;9.526;2023-02-28T08:59:15;1.50;99.90
12039;DHT22;6080;48.818;9.526;2023-02-28T09:01:41;1.50;99.90
12039;DHT22;6080;48.818;9.526;2023-02-28T09:04:07;1.70;99.90
12039;DHT22;6080;48.818;9.526;2023-02-28T09:06:34;1.70;99.90
12039;DHT22;6080;48.818;9.526;2023-02-28T09:09:00;1.80;99.90
12039;DHT22;6080;48.818;9.526;2023-02-28T09:11:27;1.80;99.90
12039;DHT22;6080;48.818;9.526;2023-02-28T09:13:53;1.90;99.90
12039;DHT22;6080;48.818;9.526;2023-02-28T09:16:21;1.90;99.90
12039;DHT22;6080;48.818;9.526;2023-02-28T09:18:47;1.90;99.90
12039;DHT22;6080;48.818;9.526;2023-02-28T09:21:16;1.90;99.90
12039;DHT22;6080;48.818;9.526;2023-02-28T09:23:47;2.00;99.90
12039;DHT22;6080;48.818;9.526;2023-02-28T09:26:15;2.10;99.90
12039;DHT22;6080;48.818;9.526;2023-02-28T09:28:41;2.00;99.90
12039;DHT22;6080;48.818;9.526;2023-02-28T09:31:13;2.10;99.90
12039;DHT22;6080;48.818;9.526;2023-02-28T09:33:39;2.20;99.90
12039;DHT22;6080;48.818;9.526;2023-02-28T09:36:05;2.40;99.90
12039;DHT22;6080;48.818;9.526;2023-02-28T09:38:31;2.70;99.90
12039;DHT22;6080;48.818;9.526;2023-02-28T09:41:03;3.10;99.90
12039;DHT22;6080;48.818;9.526;2023-02-28T09:43:37;3.10;99.90
12039;DHT22;6080;48.818;9.526;2023-02-28T09:48:36;3.10;99.90
12039;DHT22;6080;48.818;9.526;2023-02-28T09:51:45;3.30;99.90
12039;DHT22;6080;48.818;9.526;2023-02-28T09:54:17;3.40;99.90
12039;DHT22;6080;48.818;9.526;2023-02-28T09:56:48;3.60;99.90
12039;DHT22;6080;48.818;9.526;2023-02-28T10:05:10;4.10;99.90
12039;DHT22;6080;48.818;9.526;2023-02-28T10:12:59;3.40;99.90
12039;DHT22;6080;48.818;9.526;2023-02-28T10:15:27;3.60;99.90
12039;DHT22;6080;48.818;9.526;2023-02-28T10:17:58;3.50;99.90
12039;DHT22;6080;48.818;9.526;2023-02-28T10:20:26;3.90;99.90
12039;DHT22;6080;48.818;9.526;2023-02-28T10:23:21;4.20;99.90
12039;DHT22;6080;48.818;9.526;2023-02-28T10:25:55;4.30;99.90
12039;DHT22;6080;48.818;9.526;2023-02-28T10:28:24;4.40;99.90
12039;DHT22;6080;48.818;9.526;2023-02-28T10:30:52;4.00;99.90
12039;DHT22;6080;48.818;9.526;2023-02-28T10:33:19;3.80;99.90
12039;DHT22;6080;48.818;9.526;2023-02-28T10:35:46;3.60;99.90
12039;DHT22;6080;48.818;9.526;2023-02-28T10:38:20;3.60;99.90
12039;DHT22;6080;48.818;9.526;2023-02-28T10:40:47;3.70;99.90
12039;DHT22;6080;48.818;9.526;2023-02-28T10:45:38;4.10;99.90
12039;DHT22;6080;48.818;9.526;2023-02-28T10:48:26;4.90;99.90
12039;DHT22;6080;48.818;9.526;2023-02-28T10:50:53;4.80;99.90
12039;DHT22;6080;48.818;9.526;2023-02-28T10:58:58;4.40;99.90
12039;DHT22;6080;48.818;9.526;2023-02-28T11:01:45;5.20;99.90
12039;DHT22;6080;48.818;9.526;2023-02-28T11:04:35;5.10;99.90
12039;DHT22;6080;48.818;9.526;2023-02-28T11:07:05;4.60;99.90
12039;DHT22;6080;48.818;9.526;2023-02-28T11:09:39;4.00;99.90
12039;DHT22;6080;48.818;9.526;2023-02-28T11:12:08;4.00;99.90
12039;DHT22;6080;48.818;9.526;2023-02-28T11:14:53;3.90;99.90
12039;DHT22;6080;48.818;9.526;2023-02-28T11:17:30;4.10;99.90
12039;DHT22;6080;48.818;9.526;2023-02-28T11:19:59;4.70;99.90
12039;DHT22;6080;48.818;9.526;2023-02-28T11:22:32;5.60;99.90
12039;DHT22;6080;48.818;9.526;2023-02-28T11:25:06;6.10;99.90
12039;DHT22;6080;48.818;9.526;2023-02-28T11:30:00;4.90;99.90
12039;DHT22;6080;48.818;9.526;2023-02-28T11:32:29;4.80;99.90
12039;DHT22;6080;48.818;9.526;2023-02-28T11:37:38;5.70;99.90
12039;DHT22;6080;48.818;9.526;2023-02-28T11:40:39;5.60;99.90
12039;DHT22;6080;48.818;9.526;2023-02-28T11:51:50;6.60;99.90
12039;DHT22;6080;48.818;9.526;2023-02-28T12:03:31;6.80;99.10
12039;DHT22;6080;48.818;9.526;2023-02-28T12:06:22;6.80;98.90
12039;DHT22;6080;48.818;9.526;2023-02-28T12:11:52;8.80;95.80
12039;DHT22;6080;48.818;9.526;2023-02-28T12:17:58;10.60;90.50
12039;DHT22;6080;48.818;9.526;2023-02-28T12:34:52;9.80;85.60
12039;DHT22;6080;48.818;9.526;2023-02-28T12:40:17;9.90;84.50
12039;DHT22;6080;48.818;9.526;2023-02-28T12:42:47;10.30;82.80
12039;DHT22;6080;48.818;9.526;2023-02-28T12:45:20;11.00;80.20
12039;DHT22;6080;48.818;9.526;2023-02-28T12:47:52;10.20;80.90
12039;DHT22;6080;48.818;9.526;2023-02-28T12:50:21;10.40;81.50
12039;DHT22;6080;48.818;9.526;2023-02-28T12:53:09;10.20;80.80
12039;DHT22;6080;48.818;9.526;2023-02-28T12:58:31;10.60;80.50
12039;DHT22;6080;48.818;9.526;2023-02-28T13:03:43;10.40;79.10
12039;DHT22;6080;48.818;9.526;2023-02-28T13:06:49;10.20;80.20
12039;DHT22;6080;48.818;9.526;2023-02-28T13:09:15;10.00;79.80
12039;DHT22;6080;48.818;9.526;2023-02-28T13:11:44;9.50;80.30
12039;DHT22;6080;48.818;9.526;2023-02-28T13:14:36;9.30;81.50
12039;DHT22;6080;48.818;9.526;2023-02-28T13:17:11;10.20;81.00
12039;DHT22;6080;48.818;9.526;2023-02-28T13:19:41;11.00;77.80
12039;DHT22;6080;48.818;9.526;2023-02-28T13:22:38;10.70;77.00
12039;DHT22;6080;48.818;9.526;2023-02-28T13:28:00;11.30;75.20
12039;DHT22;6080;48.818;9.526;2023-02-28T13:38:42;11.50;73.70
12039;DHT22;6080;48.818;9.526;2023-02-28T13:44:21;10.20;76.00
12039;DHT22;6080;48.818;9.526;2023-02-28T14:03:21;10.20;76.50
12039;DHT22;6080;48.818;9.526;2023-02-28T14:08:56;10.20;76.20
12039;DHT22;6080;48.818;9.526;2023-02-28T14:11:32;9.50;77.40
12039;DHT22;6080;48.818;9.526;2023-02-28T14:13:58;9.40;79.00
12039;DHT22;6080;48.818;9.526;2023-02-28T14:16:26;8.90;79.40
12039;DHT22;6080;48.818;9.526;2023-02-28T14:18:58;8.70;81.00
12039;DHT22;6080;48.818;9.526;2023-02-28T14:21:38;8.70;80.80
12039;DHT22;6080;48.818;9.526;2023-02-28T14:35:45;7.60;85.20
12039;DHT22;6080;48.818;9.526;2023-02-28T14:38:23;7.30;85.50
12039;DHT22;6080;48.818;9.526;2023-02-28T14:40:52;7.20;86.80
12039;DHT22;6080;48.818;9.526;2023-02-28T14:43:22;7.20;86.90
12039;DHT22;6080;48.818;9.526;2023-02-28T14:45:59;7.50;88.00
12039;DHT22;6080;48.818;9.526;2023-02-28T14:48:26;7.60;86.30
12039;DHT22;6080;48.818;9.526;2023-02-28T14:50:55;7.40;87.10
12039;DHT22;6080;48.818;9.526;2023-02-28T14:53:24;7.60;87.30
12039;DHT22;6080;48.818;9.526;2023-02-28T14:55:50;7.50;87.50
12039;DHT22;6080;48.818;9.526;2023-02-28T14:58:26;7.90;87.50
12039;DHT22;6080;48.818;9.526;2023-02-28T15:00:55;8.00;86.70
12039;DHT22;6080;48.818;9.526;2023-02-28T15:03:36;8.00;87.00
12039;DHT22;6080;48.818;9.526;2023-02-28T15:06:13;8.00;86.80
12039;DHT22;6080;48.818;9.526;2023-02-28T15:08:39;7.50;87.10
12039;DHT22;6080;48.818;9.526;2023-02-28T15:11:08;7.10;88.50
12039;DHT22;6080;48.818;9.526;2023-02-28T15:13:44;7.00;89.80
12039;DHT22;6080;48.818;9.526;2023-02-28T15:24:54;6.60;90.90
12039;DHT22;6080;48.818;9.526;2023-02-28T15:26:56;6.70;91.10
12039;DHT22;6080;48.818;9.526;2023-02-28T15:29:25;6.60;91.40
12039;DHT22;6080;48.818;9.526;2023-02-28T15:32:00;6.50;91.20
12039;DHT22;6080;48.818;9.526;2023-02-28T15:34:40;6.40;91.50
12039;DHT22;6080;48.818;9.526;2023-02-28T15:40:10;6.10;91.50
12039;DHT22;6080;48.818;9.526;2023-02-28T15:42:37;5.90;91.80
12039;DHT22;6080;48.818;9.526;2023-02-28T15:45:03;5.90;92.30
12039;DHT22;6080;48.818;9.526;2023-02-28T15:47:29;6.00;92.60
12039;DHT22;6080;48.818;9.526;2023-02-28T15:50:11;6.10;92.20
12039;DHT22;6080;48.818;9.526;2023-02-28T15:52:41;6.00;92.40
12039;DHT22;6080;48.818;9.526;2023-02-28T15:57:53;5.90;92.80
12039;DHT22;6080;48.818;9.526;2023-02-28T16:00:23;6.00;92.90
12039;DHT22;6080;48.818;9.526;2023-02-28T16:02:49;5.90;92.90
12039;DHT22;6080;48.818;9.526;2023-02-28T16:07:47;5.50;93.40
12039;DHT22;6080;48.818;9.526;2023-02-28T16:10:14;5.30;93.60
12039;DHT22;6080;48.818;9.526;2023-02-28T16:12:40;5.20;93.90
12039;DHT22;6080;48.818;9.526;2023-02-28T16:15:28;5.20;94.20
12039;DHT22;6080;48.818;9.526;2023-02-28T16:17:55;5.10;94.20
12039;DHT22;6080;48.818;9.526;2023-02-28T16:20:27;5.10;94.30
12039;DHT22;6080;48.818;9.526;2023-02-28T16:22:53;5.10;94.70
12039;DHT22;6080;48.818;9.526;2023-02-28T16:25:23;5.10;95.10
12039;DHT22;6080;48.818;9.526;2023-02-28T16:27:52;5.20;94.40
12039;DHT22;6080;48.818;9.526;2023-02-28T16:30:28;5.20;94.50
12039;DHT22;6080;48.818;9.526;2023-02-28T16:32:57;5.20;94.70
12039;DHT22;6080;48.818;9.526;2023-02-28T16:35:23;5.10;94.70
12039;DHT22;6080;48.818;9.526;2023-02-28T16:37:51;5.00;95.00
12039;DHT22;6080;48.818;9.526;2023-02-28T16:40:22;4.90;94.90
12039;DHT22;6080;48.818;9.526;2023-02-28T16:42:50;4.70;95.50
12039;DHT22;6080;48.818;9.526;2023-02-28T16:45:25;4.60;95.80
12039;DHT22;6080;48.818;9.526;2023-02-28T16:47:52;4.40;96.00
12039;DHT22;6080;48.818;9.526;2023-02-28T16:50:21;4.40;96.40
12039;DHT22;6080;48.818;9.526;2023-02-28T16:52:47;4.30;96.60
12039;DHT22;6080;48.818;9.526;2023-02-28T16:55:14;4.20;97.00
12039;DHT22;6080;48.818;9.526;2023-02-28T16:57:43;4.10;97.40
12039;DHT22;6080;48.818;9.526;2023-02-28T17:00:13;4.00;97.70
12039;DHT22;6080;48.818;9.526;2023-02-28T17:02:40;3.90;97.90
12039;DHT22;6080;48.818;9.526;2023-02-28T17:05:06;3.80;98.20
12039;DHT22;6080;48.818;9.526;2023-02-28T17:07:32;3.70;98.60
12039;DHT22;6080;48.818;9.526;2023-02-28T17:09:59;3.60;98.80
12039;DHT22;6080;48.818;9.526;2023-02-28T17:12:34;3.50;99.00
12039;DHT22;6080;48.818;9.526;2023-02-28T17:14:59;3.50;99.50
12039;DHT22;6080;48.818;9.526;2023-02-28T17:17:25;3.50;99.70
12039;DHT22;6080;48.818;9.526;2023-02-28T17:19:51;3.40;99.50
12039;DHT22;6080;48.818;9.526;2023-02-28T17:22:17;3.40;99.90
12039;DHT22;6080;48.818;9.526;2023-02-28T17:24:43;3.30;99.80
12039;DHT22;6080;48.818;9.526;2023-02-28T17:27:13;3.30;99.90
12039;DHT22;6080;48.818;9.526;2023-02-28T17:29:39;3.20;99.90
12039;DHT22;6080;48.818;9.526;2023-02-28T17:32:05;3.10;99.90
12039;DHT22;6080;48.818;9.526;2023-02-28T17:34:31;3.10;99.90
12039;DHT22;6080;48.818;9.526;2023-02-28T17:36:57;3.10;99.90
12039;DHT22;6080;48.818;9.526;2023-02-28T17:39:22;3.00;99.90
12039;DHT22;6080;48.818;9.526;2023-02-28T17:41:57;3.00;99.90
12039;DHT22;6080;48.818;9.526;2023-02-28T17:44:24;2.90;99.90
12039;DHT22;6080;48.818;9.526;2023-02-28T17:46:51;2.80;99.90
12039;DHT22;6080;48.818;9.526;2023-02-28T17:49:18;2.80;99.90
12039;DHT22;6080;48.818;9.526;2023-02-28T17:51:44;2.70;99.90
12039;DHT22;6080;48.818;9.526;2023-02-28T17:54:10;2.70;99.90
12039;DHT22;6080;48.818;9.526;2023-02-28T17:56:36;2.60;99.90
12039;DHT22;6080;48.818;9.526;2023-02-28T17:59:02;2.60;99.90
12039;DHT22;6080;48.818;9.526;2023-02-28T18:01:28;2.50;99.90
12039;DHT22;6080;48.818;9.526;2023-02-28T18:03:54;2.50;99.90
12039;DHT22;6080;48.818;9.526;2023-02-28T18:08:51;2.30;99.90
12039;DHT22;6080;48.818;9.526;2023-02-28T18:11:18;2.20;99.90
12039;DHT22;6080;48.818;9.526;2023-02-28T18:13:49;2.20;99.90
12039;DHT22;6080;48.818;9.526;2023-02-28T18:16:16;2.20;99.90
12039;DHT22;6080;48.818;9.526;2023-02-28T18:18:48;2.10;99.90
12039;DHT22;6080;48.818;9.526;2023-02-28T18:21:16;2.00;99.90
12039;DHT22;6080;48.818;9.526;2023-02-28T18:23:43;1.90;99.90
12039;DHT22;6080;48.818;9.526;2023-02-28T18:26:17;1.70;99.90
12039;DHT22;6080;48.818;9.526;2023-02-28T18:28:44;1.70;99.90
12039;DHT22;6080;48.818;9.526;2023-02-28T18:31:15;1.60;99.90
12039;DHT22;6080;48.818;9.526;2023-02-28T18:33:51;1.50;99.90
12039;DHT22;6080;48.818;9.526;2023-02-28T18:36:19;1.40;99.90
12039;DHT22;6080;48.818;9.526;2023-02-28T18:38:46;1.40;99.90
12039;DHT22;6080;48.818;9.526;2023-02-28T18:41:12;1.30;99.90
12039;DHT22;6080;48.818;9.526;2023-02-28T18:43:38;1.20;99.90
12039;DHT22;6080;48.818;9.526;2023-02-28T18:46:06;1.20;99.90
12039;DHT22;6080;48.818;9.526;2023-02-28T18:48:32;1.10;99.90
12039;DHT22;6080;48.818;9.526;2023-02-28T18:51:04;1.00;99.90
12039;DHT22;6080;48.818;9.526;2023-02-28T18:53:30;0.90;99.90
12039;DHT22;6080;48.818;9.526;2023-02-28T18:56:00;0.70;99.90
12039;DHT22;6080;48.818;9.526;2023-02-28T18:58:25;0.70;99.90
12039;DHT22;6080;48.818;9.526;2023-02-28T19:00:53;0.60;99.90
12039;DHT22;6080;48.818;9.526;2023-02-28T19:03:19;0.70;99.90
12039;DHT22;6080;48.818;9.526;2023-02-28T19:05:45;0.70;99.90
12039;DHT22;6080;48.818;9.526;2023-02-28T19:08:11;0.60;99.90
12039;DHT22;6080;48.818;9.526;2023-02-28T19:10:40;0.50;99.90
12039;DHT22;6080;48.818;9.526;2023-02-28T19:13:07;0.40;99.90
12039;DHT22;6080;48.818;9.526;2023-02-28T19:15:33;0.40;99.90
12039;DHT22;6080;48.818;9.526;2023-02-28T19:18:00;0.30;99.90
12039;DHT22;6080;48.818;9.526;2023-02-28T19:20:26;0.30;99.90
12039;DHT22;6080;48.818;9.526;2023-02-28T19:22:51;0.30;99.90
12039;DHT22;6080;48.818;9.526;2023-02-28T19:25:17;0.20;99.90
12039;DHT22;6080;48.818;9.526;2023-02-28T19:27:44;0.20;99.90
12039;DHT22;6080;48.818;9.526;2023-02-28T19:30:10;0.10;99.90
12039;DHT22;6080;48.818;9.526;2023-02-28T19:32:36;0.10;99.90
12039;DHT22;6080;48.818;9.526;2023-02-28T19:35:03;0.00;99.90
12039;DHT22;6080;48.818;9.526;2023-02-28T19:37:29;0.00;99.90
12039;DHT22;6080;48.818;9.526;2023-02-28T19:39:55;-0.10;99.90
12039;DHT22;6080;48.818;9.526;2023-02-28T19:42:21;-0.10;99.90
12039;DHT22;6080;48.818;9.526;2023-02-28T19:44:47;-0.20;99.90
12039;DHT22;6080;48.818;9.526;2023-02-28T19:47:13;-0.20;99.90
12039;DHT22;6080;48.818;9.526;2023-02-28T19:49:39;-0.20;99.90
12039;DHT22;6080;48.818;9.526;2023-02-28T19:52:05;-0.10;99.90
12039;DHT22;6080;48.818;9.526;2023-02-28T19:54:31;-0.20;99.90
12039;DHT22;6080;48.818;9.526;2023-02-28T19:56:57;-0.20;99.90
12039;DHT22;6080;48.818;9.526;2023-02-28T19:59:27;-0.20;99.90
12039;DHT22;6080;48.818;9.526;2023-02-28T20:01:53;-0.20;99.90
12039;DHT22;6080;48.818;9.526;2023-02-28T20:04:24;-0.30;99.90
12039;DHT22;6080;48.818;9.526;2023-02-28T20:06:50;-0.40;99.90
12039;DHT22;6080;48.818;9.526;2023-02-28T20:09:17;-0.40;99.90
12039;DHT22;6080;48.818;9.526;2023-02-28T20:11:43;-0.50;99.90
12039;DHT22;6080;48.818;9.526;2023-02-28T20:14:11;-0.50;99.90
12039;DHT22;6080;48.818;9.526;2023-02-28T20:16:39;-0.60;99.90
12039;DHT22;6080;48.818;9.526;2023-02-28T20:19:05;-0.60;99.90
12039;DHT22;6080;48.818;9.526;2023-02-28T20:21:31;-0.50;99.90
12039;DHT22;6080;48.818;9.526;2023-02-28T20:23:57;-0.60;99.90
12039;DHT22;6080;48.818;9.526;2023-02-28T20:26:23;-0.80;99.90
12039;DHT22;6080;48.818;9.526;2023-02-28T20:28:49;-0.90;99.90
12039;DHT22;6080;48.818;9.526;2023-02-28T20:33:43;-0.90;99.90
12039;DHT22;6080;48.818;9.526;2023-02-28T20:36:09;-0.80;99.90
12039;DHT22;6080;48.818;9.526;2023-02-28T20:38:37;-0.80;99.90
12039;DHT22;6080;48.818;9.526;2023-02-28T20:41:03;-0.80;99.90
12039;DHT22;6080;48.818;9.526;2023-02-28T20:43:29;-0.80;99.90
12039;DHT22;6080;48.818;9.526;2023-02-28T20:45:56;-0.80;99.90
12039;DHT22;6080;48.818;9.526;2023-02-28T20:48:30;-0.70;99.90
12039;DHT22;6080;48.818;9.526;2023-02-28T20:50:58;-0.60;99.90
12039;DHT22;6080;48.818;9.526;2023-02-28T20:53:25;-0.60;99.90
12039;DHT22;6080;48.818;9.526;2023-02-28T20:58:25;-0.80;99.90
12039;DHT22;6080;48.818;9.526;2023-02-28T21:01:01;-0.90;99.90
12039;DHT22;6080;48.818;9.526;2023-02-28T21:03:27;-1.00;99.90
12039;DHT22;6080;48.818;9.526;2023-02-28T21:05:59;-0.90;99.90
12039;DHT22;6080;48.818;9.526;2023-02-28T21:08:26;-1.00;99.90
12039;DHT22;6080;48.818;9.526;2023-02-28T21:10:53;-1.00;99.90
12039;DHT22;6080;48.818;9.526;2023-02-28T21:13:18;-1.10;99.90
12039;DHT22;6080;48.818;9.526;2023-02-28T21:15:44;-1.10;99.90
12039;DHT22;6080;48.818;9.526;2023-02-28T21:18:10;-1.10;99.90
12039;DHT22;6080;48.818;9.526;2023-02-28T21:20:36;-1.10;99.90
12039;DHT22;6080;48.818;9.526;2023-02-28T21:23:01;-1.20;99.90
12039;DHT22;6080;48.818;9.526;2023-02-28T21:25:27;-1.20;99.90
12039;DHT22;6080;48.818;9.526;2023-02-28T21:27:53;-1.20;99.90
12039;DHT22;6080;48.818;9.526;2023-02-28T21:30:20;-1.10;99.90
12039;DHT22;6080;48.818;9.526;2023-02-28T21:32:47;-1.10;99.90
12039;DHT22;6080;48.818;9.526;2023-02-28T21:35:13;-1.20;99.90
12039;DHT22;6080;48.818;9.526;2023-02-28T21:37:39;-1.20;99.90
12039;DHT22;6080;48.818;9.526;2023-02-28T21:40:06;-1.30;99.90
12039;DHT22;6080;48.818;9.526;2023-02-28T21:42:33;-1.30;99.90
12039;DHT22;6080;48.818;9.526;2023-02-28T21:44:58;-1.30;99.90
12039;DHT22;6080;48.818;9.526;2023-02-28T21:47:28;-1.20;99.90
12039;DHT22;6080;48.818;9.526;2023-02-28T21:49:57;-1.20;99.90
12039;DHT22;6080;48.818;9.526;2023-02-28T21:52:22;-1.20;99.90
12039;DHT22;6080;48.818;9.526;2023-02-28T21:54:48;-1.30;99.90
12039;DHT22;6080;48.818;9.526;2023-02-28T21:57:14;-1.40;99.90
12039;DHT22;6080;48.818;9.526;2023-02-28T21:59:44;-1.50;99.90
